createdAt,value
2023-09-12T00:02:22.716Z,65.28
2023-09-12T00:04:53.341Z,65.34
2023-09-12T00:07:24.036Z,65.22
2023-09-12T00:09:54.745Z,65.31
2023-09-12T00:12:26.930Z,65.51
2023-09-12T00:14:57.845Z,65.46
2023-09-12T00:17:29.056Z,65.76
2023-09-12T00:19:59.790Z,65.82
2023-09-12T00:22:30.490Z,65.79
2023-09-12T00:25:01.712Z,65.42
2023-09-12T00:27:32.527Z,65.33
2023-09-12T00:30:03.927Z,65.22
2023-09-12T00:32:34.759Z,65.04
2023-09-12T00:35:05.938Z,65.00
2023-09-12T00:37:36.718Z,65.10
2023-09-12T00:40:09.509Z,65.07
2023-09-12T00:42:40.176Z,65.22
2023-09-12T00:45:12.266Z,65.06
2023-09-12T00:47:43.186Z,64.88
2023-09-12T00:50:15.443Z,65.08
2023-09-12T00:52:47.285Z,65.21
2023-09-12T00:55:18.708Z,65.25
2023-09-12T00:57:49.902Z,65.08
2023-09-12T01:00:20.931Z,65.20
2023-09-12T01:02:54.422Z,65.19
2023-09-12T01:05:26.282Z,64.94
2023-09-12T01:07:57.683Z,65.18
2023-09-12T01:10:28.788Z,65.21
2023-09-12T01:12:59.520Z,65.41
2023-09-12T01:15:30.264Z,65.49
2023-09-12T01:18:01.784Z,65.83
2023-09-12T01:20:36.274Z,66.01
2023-09-12T01:23:31.978Z,66.19
2023-09-12T01:26:27.852Z,66.59
2023-09-12T01:29:01.671Z,66.85
2023-09-12T01:31:34.302Z,67.04
2023-09-12T01:34:13.625Z,67.16
2023-09-12T01:36:44.329Z,67.12
2023-09-12T01:39:15.238Z,66.96
2023-09-12T01:41:49.914Z,67.05
2023-09-12T01:44:24.189Z,67.11
2023-09-12T01:46:55.759Z,67.17
2023-09-12T01:49:29.149Z,67.29
2023-09-12T01:52:00.980Z,66.95
2023-09-12T01:54:32.604Z,66.83
2023-09-12T01:57:04.860Z,66.76
2023-09-12T01:59:35.769Z,66.48
2023-09-12T02:02:08.102Z,66.59
2023-09-12T02:04:38.839Z,66.52
2023-09-12T02:07:09.443Z,66.58
2023-09-12T02:09:40.131Z,66.37
2023-09-12T02:12:11.245Z,66.47
2023-09-12T02:14:42.065Z,66.37
2023-09-12T02:17:12.952Z,66.11
2023-09-12T02:19:43.737Z,66.23
2023-09-12T02:22:14.401Z,66.27
2023-09-12T02:24:45.045Z,66.32
2023-09-12T02:27:15.721Z,66.10
2023-09-12T02:29:46.513Z,66.16
2023-09-12T02:32:17.286Z,66.13
2023-09-12T02:34:48.188Z,66.45
2023-09-12T02:37:18.773Z,66.63
2023-09-12T02:39:49.508Z,66.74
2023-09-12T02:42:20.215Z,66.81
2023-09-12T02:44:50.976Z,66.64
2023-09-12T02:47:21.610Z,66.53
2023-09-12T02:49:52.245Z,66.41
2023-09-12T02:52:23.294Z,66.45
2023-09-12T02:54:54.005Z,66.58
2023-09-12T02:57:25.368Z,66.80
2023-09-12T02:59:56.105Z,66.83
2023-09-12T03:02:26.981Z,66.81
2023-09-12T03:04:57.972Z,66.96
2023-09-12T03:07:28.967Z,67.01
2023-09-12T03:09:59.808Z,67.17
2023-09-12T03:12:30.501Z,66.97
2023-09-12T03:15:01.376Z,66.96
2023-09-12T03:17:33.260Z,67.12
2023-09-12T03:20:07.468Z,67.40
2023-09-12T03:22:39.352Z,67.46
2023-09-12T03:25:11.250Z,67.58
2023-09-12T03:27:42.048Z,67.61
2023-09-12T03:30:14.633Z,67.42
2023-09-12T03:32:45.573Z,67.26
2023-09-12T03:35:16.611Z,67.43
2023-09-12T03:37:47.214Z,67.49
2023-09-12T03:40:18.322Z,67.85
2023-09-12T03:42:49.181Z,67.76
2023-09-12T03:45:20.777Z,67.93
2023-09-12T03:47:51.524Z,68.04
2023-09-12T03:50:22.383Z,67.87
2023-09-12T03:52:53.153Z,67.99
2023-09-12T03:55:23.947Z,67.98
2023-09-12T03:57:54.530Z,67.92
2023-09-12T04:00:25.654Z,68.20
2023-09-12T04:02:56.353Z,68.14
2023-09-12T04:05:27.719Z,68.16
2023-09-12T04:07:58.420Z,68.16
2023-09-12T04:10:29.435Z,68.15
2023-09-12T04:13:00.229Z,68.18
2023-09-12T04:15:31.168Z,68.27
2023-09-12T04:18:02.298Z,68.19
2023-09-12T04:20:33.529Z,68.11
2023-09-12T04:23:06.019Z,68.26
2023-09-12T04:25:36.985Z,68.20
2023-09-12T04:28:08.913Z,67.90
2023-09-12T04:30:40.956Z,67.75
2023-09-12T04:33:10.223Z,67.75
2023-09-12T04:35:40.848Z,67.69
2023-09-12T04:38:11.550Z,67.72
2023-09-12T04:40:43.200Z,67.49
2023-09-12T04:43:13.849Z,67.55
2023-09-12T04:45:44.597Z,67.41
2023-09-12T04:48:15.435Z,67.42
2023-09-12T04:50:47.022Z,67.28
2023-09-12T04:53:16.860Z,67.29
2023-09-12T04:55:47.812Z,67.67
2023-09-12T04:58:18.472Z,67.57
2023-09-12T05:00:49.779Z,67.62
2023-09-12T05:03:20.628Z,67.37
2023-09-12T05:05:52.312Z,67.45
2023-09-12T05:08:23.781Z,67.77
2023-09-12T05:10:54.569Z,67.63
2023-09-12T05:13:25.907Z,67.19
2023-09-12T05:15:57.042Z,67.06
2023-09-12T05:18:28.743Z,67.11
2023-09-12T05:20:59.646Z,66.81
2023-09-12T05:23:30.480Z,66.48
2023-09-12T05:26:02.056Z,66.14
2023-09-12T05:28:32.676Z,66.00
2023-09-12T05:31:04.374Z,65.85
2023-09-12T05:33:36.742Z,65.72
2023-09-12T05:36:08.439Z,65.54
2023-09-12T05:38:39.204Z,65.42
2023-09-12T05:41:09.869Z,65.47
2023-09-12T05:43:40.847Z,65.63
2023-09-12T05:46:11.585Z,66.05
2023-09-12T05:48:42.712Z,65.85
2023-09-12T05:51:13.811Z,65.54
2023-09-12T05:53:44.693Z,65.07
2023-09-12T05:56:15.321Z,64.59
2023-09-12T05:58:46.071Z,64.41
2023-09-12T06:01:16.863Z,64.00
2023-09-12T06:03:47.869Z,63.44
2023-09-12T06:06:19.160Z,62.84
2023-09-12T06:08:49.805Z,62.34
2023-09-12T06:11:20.569Z,61.94
2023-09-12T06:13:51.306Z,61.39
2023-09-12T06:16:22.045Z,60.93
2023-09-12T06:18:54.865Z,60.12
2023-09-12T06:21:25.657Z,59.46
2023-09-12T06:24:12.692Z,58.89
2023-09-12T06:26:44.038Z,58.11
2023-09-12T06:29:15.495Z,57.56
2023-09-12T06:31:46.198Z,57.10
2023-09-12T06:34:19.984Z,56.51
2023-09-12T06:36:50.848Z,56.55
2023-09-12T06:39:21.776Z,56.29
2023-09-12T06:41:52.581Z,56.29
2023-09-12T06:44:23.275Z,55.85
2023-09-12T06:46:54.147Z,55.50
2023-09-12T06:49:25.141Z,54.95
2023-09-12T06:51:55.976Z,55.15
2023-09-12T06:54:26.658Z,55.08
2023-09-12T06:56:57.391Z,54.91
2023-09-12T06:59:28.205Z,54.16
2023-09-12T07:01:58.949Z,54.15
2023-09-12T07:04:29.789Z,54.26
2023-09-12T07:07:00.642Z,53.96
2023-09-12T07:09:31.437Z,53.09
2023-09-12T07:12:02.323Z,53.38
2023-09-12T07:14:32.979Z,53.12
2023-09-12T07:17:03.868Z,52.38
2023-09-12T07:19:34.509Z,52.15
2023-09-12T07:22:05.839Z,51.85
2023-09-12T07:24:36.669Z,51.64
2023-09-12T07:27:08.098Z,50.81
2023-09-12T07:29:40.268Z,51.52
2023-09-12T07:32:11.267Z,51.57
2023-09-12T07:34:44.221Z,51.10
2023-09-12T07:37:14.821Z,49.97
2023-09-12T07:39:45.582Z,50.04
2023-09-12T07:42:16.352Z,49.89
2023-09-12T07:45:08.149Z,49.49
2023-09-12T07:47:38.855Z,49.11
2023-09-12T07:50:11.248Z,48.71
2023-09-12T07:52:42.017Z,48.87
2023-09-12T07:55:13.462Z,48.84
2023-09-12T07:57:56.409Z,48.15
2023-09-12T08:00:27.728Z,48.69
2023-09-12T08:02:58.553Z,49.02
2023-09-12T08:05:29.319Z,48.81
2023-09-12T08:08:00.187Z,47.34
2023-09-12T08:10:31.369Z,46.98
2023-09-12T08:13:02.380Z,46.92
2023-09-12T08:15:33.054Z,45.92
2023-09-12T08:18:04.100Z,46.11
2023-09-12T08:20:34.959Z,46.36
2023-09-12T08:23:05.874Z,46.14
2023-09-12T08:25:36.742Z,45.52
2023-09-12T08:28:08.114Z,45.44
2023-09-12T08:30:38.850Z,45.48
2023-09-12T08:33:09.643Z,44.78
2023-09-12T08:35:40.354Z,44.89
2023-09-12T08:38:11.490Z,44.73
2023-09-12T08:40:43.329Z,44.95
2023-09-12T08:43:14.158Z,44.55
2023-09-12T08:45:46.006Z,43.82
2023-09-12T08:48:17.848Z,43.90
2023-09-12T08:50:51.883Z,44.21
2023-09-12T08:53:23.778Z,43.74
2023-09-12T08:55:55.707Z,43.20
2023-09-12T08:58:26.957Z,42.92
2023-09-12T09:00:58.133Z,43.31
2023-09-12T09:03:29.301Z,43.07
2023-09-12T09:06:02.577Z,42.91
2023-09-12T09:08:33.843Z,43.21
2023-09-12T09:11:06.937Z,42.57
2023-09-12T09:13:37.609Z,42.19
2023-09-12T09:16:16.140Z,42.24
2023-09-12T09:18:58.904Z,41.76
2023-09-12T09:21:32.009Z,41.63
2023-09-12T09:24:04.813Z,41.79
2023-09-12T09:26:47.100Z,41.68
2023-09-12T09:29:20.105Z,41.02
2023-09-12T09:31:52.606Z,41.44
2023-09-12T09:34:25.261Z,42.00
2023-09-12T09:36:58.012Z,41.64
2023-09-12T09:39:30.527Z,41.05
2023-09-12T09:42:01.672Z,40.26
2023-09-12T09:44:33.339Z,39.95
2023-09-12T09:47:07.386Z,39.13
2023-09-12T09:49:38.655Z,39.06
2023-09-12T09:52:09.906Z,38.74
2023-09-12T09:54:47.644Z,37.44
2023-09-12T09:57:18.601Z,36.97
2023-09-12T09:59:52.861Z,37.22
2023-09-12T10:02:28.061Z,37.68
2023-09-12T10:05:01.408Z,37.28
2023-09-12T10:07:35.520Z,36.84
2023-09-12T10:10:07.899Z,37.00
2023-09-12T10:12:47.160Z,37.04
2023-09-12T10:15:23.534Z,36.88
2023-09-12T10:18:00.937Z,37.37
2023-09-12T10:20:39.936Z,37.36
2023-09-12T10:23:14.350Z,36.29
2023-09-12T10:25:47.505Z,35.85
2023-09-12T10:28:19.641Z,36.55
2023-09-12T10:30:51.777Z,36.70
2023-09-12T10:33:23.353Z,36.82
2023-09-12T10:35:54.713Z,36.60
2023-09-12T10:38:28.653Z,36.58
2023-09-12T10:41:01.173Z,36.62
2023-09-12T10:43:34.898Z,37.24
2023-09-12T10:46:06.116Z,36.88
2023-09-12T10:48:38.669Z,37.22
2023-09-12T10:51:10.985Z,36.78
2023-09-12T10:53:47.211Z,37.22
2023-09-12T10:56:30.551Z,37.14
2023-09-12T10:59:17.827Z,37.39
2023-09-12T11:01:49.868Z,37.72
2023-09-12T11:04:38.838Z,38.11
2023-09-12T11:07:46.170Z,38.28
2023-09-12T11:10:27.072Z,38.03
2023-09-12T11:12:59.097Z,37.33
2023-09-12T11:15:32.494Z,37.24
2023-09-12T11:18:07.944Z,37.01
2023-09-12T11:21:04.630Z,36.92
2023-09-12T11:23:36.925Z,37.10
2023-09-12T11:26:08.950Z,38.16
2023-09-12T11:28:40.625Z,38.19
2023-09-12T11:31:12.291Z,37.67
2023-09-12T11:33:44.673Z,38.06
2023-09-12T11:36:20.867Z,38.27
2023-09-12T11:38:54.114Z,37.78
2023-09-12T11:41:44.501Z,37.82
2023-09-12T11:44:16.148Z,38.56
2023-09-12T11:46:49.829Z,38.49
2023-09-12T11:49:22.032Z,38.45
2023-09-12T11:51:54.769Z,38.91
2023-09-12T11:54:33.103Z,38.17
2023-09-12T11:57:05.625Z,38.30
2023-09-12T11:59:38.928Z,38.29
2023-09-12T12:02:12.248Z,38.36
2023-09-12T12:04:43.459Z,37.86
2023-09-12T12:07:15.100Z,37.59
2023-09-12T12:09:46.102Z,37.53
2023-09-12T12:12:17.888Z,37.62
2023-09-12T12:14:48.710Z,36.99
2023-09-12T12:17:19.416Z,37.18
2023-09-12T12:19:50.902Z,36.71
2023-09-12T12:22:22.001Z,36.63
2023-09-12T12:24:53.668Z,35.66
2023-09-12T12:27:24.427Z,35.48
2023-09-12T12:29:55.646Z,35.60
2023-09-12T12:32:26.809Z,35.83
2023-09-12T12:35:43.792Z,36.15
2023-09-12T12:37:53.665Z,36.21
2023-09-12T12:40:34.311Z,35.90
2023-09-12T12:43:18.071Z,36.45
2023-09-12T12:46:00.644Z,35.36
2023-09-12T12:48:35.750Z,35.40
2023-09-12T12:51:19.457Z,35.98
2023-09-12T12:53:53.480Z,35.18
2023-09-12T12:56:31.171Z,34.54
2023-09-12T12:59:07.900Z,34.69
2023-09-12T13:01:40.839Z,34.08
2023-09-12T13:04:12.050Z,33.37
2023-09-12T13:06:43.674Z,33.09
2023-09-12T13:09:13.673Z,32.89
2023-09-12T13:11:43.689Z,32.31
2023-09-12T13:14:14.452Z,31.73
2023-09-12T13:16:45.218Z,31.54
2023-09-12T13:19:15.960Z,32.17
2023-09-12T13:21:46.822Z,32.29
2023-09-12T13:24:17.558Z,31.97
2023-09-12T13:26:48.507Z,31.63
2023-09-12T13:29:19.328Z,31.99
2023-09-12T13:31:50.239Z,32.19
2023-09-12T13:34:21.449Z,32.43
2023-09-12T13:37:05.805Z,33.52
2023-09-12T13:39:41.327Z,34.54
2023-09-12T13:42:12.060Z,34.69
2023-09-12T13:44:42.967Z,34.80
2023-09-12T13:47:13.706Z,35.24
2023-09-12T13:49:44.472Z,35.73
2023-09-12T13:52:16.106Z,35.56
2023-09-12T13:54:45.348Z,36.14
2023-09-12T13:57:16.228Z,36.18
2023-09-12T13:59:47.159Z,36.07
2023-09-12T14:02:19.811Z,35.34
2023-09-12T14:05:00.889Z,35.04
2023-09-12T14:07:38.173Z,34.73
2023-09-12T14:10:12.656Z,34.60
2023-09-12T14:12:48.040Z,34.58
2023-09-12T14:15:18.969Z,34.81
2023-09-12T14:17:56.299Z,34.88
2023-09-12T14:20:28.245Z,34.85
2023-09-12T14:22:59.496Z,34.63
2023-09-12T14:25:30.469Z,34.33
2023-09-12T14:28:01.554Z,34.52
2023-09-12T14:30:36.436Z,34.27
2023-09-12T14:33:08.302Z,34.33
2023-09-12T14:35:39.179Z,34.61
2023-09-12T14:38:09.981Z,34.74
2023-09-12T14:40:44.134Z,34.93
2023-09-12T14:43:16.463Z,34.51
2023-09-12T14:45:47.655Z,34.67
2023-09-12T14:48:18.721Z,34.79
2023-09-12T14:50:50.378Z,35.09
2023-09-12T14:53:19.973Z,35.23
2023-09-12T14:55:50.690Z,35.52
2023-09-12T14:58:21.566Z,36.15
2023-09-12T15:00:56.550Z,36.07
2023-09-12T15:03:30.616Z,36.36
2023-09-12T15:06:01.573Z,36.55
2023-09-12T15:08:32.364Z,36.47
2023-09-12T15:11:03.063Z,36.33
2023-09-12T15:13:33.778Z,36.05
2023-09-12T15:16:05.381Z,36.24
2023-09-12T15:18:38.420Z,36.31
2023-09-12T15:21:09.247Z,36.70
2023-09-12T15:23:40.212Z,37.03
2023-09-12T15:26:11.102Z,37.03
2023-09-12T15:28:41.928Z,36.92
2023-09-12T15:31:13.012Z,37.02
2023-09-12T15:33:46.226Z,37.31
2023-09-12T15:36:17.148Z,37.39
2023-09-12T15:38:47.852Z,37.63
2023-09-12T15:41:26.679Z,37.91
2023-09-12T15:44:12.604Z,37.88
2023-09-12T15:46:49.266Z,37.57
2023-09-12T15:49:20.360Z,37.68
2023-09-12T15:51:51.695Z,37.85
2023-09-12T15:54:22.394Z,37.87
2023-09-12T15:56:53.495Z,38.07
2023-09-12T15:59:26.454Z,38.41
2023-09-12T16:01:57.524Z,38.33
2023-09-12T16:04:28.602Z,38.50
2023-09-12T16:06:59.538Z,38.91
2023-09-12T16:09:30.401Z,39.05
2023-09-12T16:12:01.203Z,39.25
2023-09-12T16:14:32.054Z,39.17
2023-09-12T16:17:03.435Z,38.69
2023-09-12T16:19:34.547Z,38.44
2023-09-12T16:22:07.038Z,38.95
2023-09-12T16:24:38.801Z,39.13
2023-09-12T16:27:10.289Z,39.12
2023-09-12T16:29:41.130Z,39.42
2023-09-12T16:32:11.987Z,39.38
2023-09-12T16:34:43.230Z,39.77
2023-09-12T16:37:14.151Z,40.10
2023-09-12T16:39:44.879Z,40.63
2023-09-12T16:42:15.743Z,41.31
2023-09-12T16:44:46.589Z,41.39
2023-09-12T16:47:17.518Z,41.23
2023-09-12T16:49:49.474Z,40.85
2023-09-12T16:52:20.235Z,41.03
2023-09-12T16:54:51.357Z,41.29
2023-09-12T16:57:25.215Z,41.78
2023-09-12T16:59:55.967Z,42.76
2023-09-12T17:02:27.368Z,43.18
2023-09-12T17:04:58.346Z,43.93
2023-09-12T17:07:29.571Z,44.09
2023-09-12T17:10:00.508Z,44.29
2023-09-12T17:12:31.523Z,44.19
2023-09-12T17:15:03.405Z,44.59
2023-09-12T17:17:33.064Z,45.10
2023-09-12T17:20:04.322Z,46.12
2023-09-12T17:22:35.088Z,46.50
2023-09-12T17:25:06.770Z,47.01
2023-09-12T17:27:38.690Z,47.46
2023-09-12T17:30:12.111Z,48.33
2023-09-12T17:32:42.812Z,48.70
2023-09-12T17:35:14.540Z,48.87
2023-09-12T17:37:48.847Z,49.32
2023-09-12T17:40:20.078Z,49.47
2023-09-12T17:42:50.808Z,49.76
2023-09-12T17:45:21.773Z,49.86
2023-09-12T17:47:54.461Z,50.12
2023-09-12T17:50:26.678Z,50.22
2023-09-12T17:53:03.842Z,50.11
2023-09-12T17:55:35.543Z,50.40
2023-09-12T17:58:06.597Z,50.17
2023-09-12T18:00:38.007Z,50.68
2023-09-12T18:03:09.366Z,50.75
2023-09-12T18:05:40.249Z,51.04
2023-09-12T18:08:11.239Z,50.63
2023-09-12T18:10:41.888Z,50.71
2023-09-12T18:13:12.764Z,50.96
2023-09-12T18:15:43.570Z,51.22
2023-09-12T18:18:14.316Z,51.71
2023-09-12T18:20:45.536Z,51.75
2023-09-12T18:23:17.645Z,51.88
2023-09-12T18:25:48.486Z,51.95
2023-09-12T18:28:40.352Z,51.97
2023-09-12T18:31:11.933Z,52.28
2023-09-12T18:33:43.401Z,52.47
2023-09-12T18:36:15.005Z,52.77
2023-09-12T18:38:46.612Z,53.11
2023-09-12T18:41:17.709Z,53.06
2023-09-12T18:43:48.494Z,53.54
2023-09-12T18:46:19.348Z,53.74
2023-09-12T18:48:50.292Z,54.11
2023-09-12T18:51:20.889Z,54.11
2023-09-12T18:53:51.778Z,54.09
2023-09-12T18:56:22.698Z,54.25
2023-09-12T18:58:53.417Z,54.41
2023-09-12T19:01:24.270Z,54.29
2023-09-12T19:03:55.293Z,53.90
2023-09-12T19:06:26.065Z,54.25
2023-09-12T19:08:56.772Z,54.60
2023-09-12T19:11:27.524Z,54.62
2023-09-12T19:13:58.279Z,54.76
2023-09-12T19:16:29.447Z,55.04
2023-09-12T19:19:00.578Z,55.12
2023-09-12T19:21:31.949Z,55.29
2023-09-12T19:24:02.737Z,55.49
2023-09-12T19:26:34.969Z,55.57
2023-09-12T19:29:06.392Z,55.36
2023-09-12T19:34:09.186Z,55.31
2023-09-12T19:36:40.378Z,55.40
2023-09-12T19:39:11.302Z,55.39
2023-09-12T19:41:42.066Z,55.55
2023-09-12T19:44:12.771Z,55.39
2023-09-12T19:46:44.308Z,55.44
2023-09-12T19:49:15.251Z,55.32
2023-09-12T19:51:46.812Z,55.36
2023-09-12T19:54:19.349Z,55.37
2023-09-12T19:56:50.194Z,55.47
2023-09-12T19:59:20.899Z,55.45
2023-09-12T20:01:52.722Z,55.58
2023-09-12T20:04:23.814Z,55.58
2023-09-12T20:06:54.608Z,55.56
2023-09-12T20:09:25.567Z,55.65
2023-09-12T20:11:57.013Z,55.64
2023-09-12T20:14:27.680Z,55.88
2023-09-12T20:16:58.483Z,55.93
2023-09-12T20:19:29.182Z,56.08
2023-09-12T20:21:59.925Z,56.15
2023-09-12T20:24:30.753Z,56.30
2023-09-12T20:27:01.482Z,56.43
2023-09-12T20:29:32.373Z,56.52
2023-09-12T20:32:03.228Z,56.63
2023-09-12T20:34:34.035Z,56.75
2023-09-12T20:37:05.398Z,56.88
2023-09-12T20:39:36.308Z,56.84
2023-09-12T20:42:07.941Z,56.83
2023-09-12T20:44:38.812Z,57.08
2023-09-12T20:47:09.629Z,57.30
2023-09-12T20:49:42.905Z,57.18
2023-09-12T20:52:13.773Z,57.21
2023-09-12T20:54:44.543Z,57.22
2023-09-12T20:57:15.416Z,57.27
2023-09-12T20:59:46.076Z,57.34
2023-09-12T21:02:16.874Z,57.37
2023-09-12T21:04:47.665Z,57.22
2023-09-12T21:07:18.343Z,57.06
2023-09-12T21:09:49.005Z,57.19
2023-09-12T21:12:19.919Z,57.35
2023-09-12T21:14:50.671Z,57.31
2023-09-12T21:17:23.170Z,57.48
2023-09-12T21:19:53.962Z,57.52
2023-09-12T21:22:24.651Z,57.78
2023-09-12T21:24:55.637Z,57.82
2023-09-12T21:27:26.946Z,58.02
2023-09-12T21:29:57.848Z,57.90
2023-09-12T21:32:28.829Z,58.20
2023-09-12T21:35:15.944Z,58.48
2023-09-12T21:37:47.592Z,58.54
2023-09-12T21:40:19.216Z,58.75
2023-09-12T21:42:50.477Z,58.87
2023-09-12T21:45:21.571Z,58.97
2023-09-12T21:47:52.502Z,59.02
2023-09-12T21:50:24.025Z,59.05
2023-09-12T21:52:54.719Z,59.32
2023-09-12T21:55:25.919Z,59.36
2023-09-12T21:57:56.678Z,59.41
2023-09-12T22:00:29.798Z,59.51
2023-09-12T22:03:01.003Z,59.46
2023-09-12T22:05:31.915Z,59.57
2023-09-12T22:08:02.602Z,59.46
2023-09-12T22:10:34.916Z,59.39
2023-09-12T22:13:06.078Z,59.22
2023-09-12T22:15:41.820Z,59.28
2023-09-12T22:18:12.684Z,59.33
2023-09-12T22:20:43.389Z,59.35
2023-09-12T22:23:14.180Z,59.33
2023-09-12T22:25:44.830Z,59.30
2023-09-12T22:28:15.647Z,59.39
2023-09-12T22:30:46.408Z,59.30
2023-09-12T22:33:17.101Z,59.34
2023-09-12T22:36:08.424Z,59.34
2023-09-12T22:38:46.296Z,59.34
2023-09-12T22:41:16.960Z,59.46
2023-09-12T22:43:47.730Z,59.39
2023-09-12T22:46:18.454Z,59.53
2023-09-12T22:48:49.223Z,59.61
2023-09-12T22:51:19.845Z,59.70
2023-09-12T22:53:50.627Z,59.92
2023-09-12T22:56:21.249Z,59.99
2023-09-12T22:58:52.294Z,59.97
2023-09-12T23:01:23.552Z,59.82
2023-09-12T23:03:54.714Z,59.80
2023-09-12T23:06:25.421Z,59.76
2023-09-12T23:08:56.103Z,59.42
2023-09-12T23:11:26.799Z,59.52
2023-09-12T23:13:58.004Z,59.45
2023-09-12T23:16:28.690Z,59.30
2023-09-12T23:18:59.423Z,59.27
2023-09-12T23:21:31.027Z,59.28
2023-09-12T23:24:01.814Z,59.39
2023-09-12T23:26:32.433Z,59.62
2023-09-12T23:29:03.895Z,59.94
2023-09-12T23:31:34.667Z,59.98
2023-09-12T23:34:06.015Z,59.93
2023-09-12T23:36:36.772Z,60.22
2023-09-12T23:39:07.804Z,60.43
2023-09-12T23:41:38.895Z,60.38
2023-09-12T23:44:09.682Z,60.58
2023-09-12T23:46:40.591Z,60.59
2023-09-12T23:49:11.503Z,60.68
2023-09-12T23:51:42.992Z,60.76
2023-09-12T23:54:13.724Z,61.00
2023-09-12T23:56:44.424Z,61.26
2023-09-12T23:59:15.961Z,61.16
